Time;durP1;ratioP1;P1;durP2;ratioP2;P2;SDS_P1;SDS_P2;PMS_P1;PMS_P2;Temp;Humidity;BMP_temperature;BMP_pressure;BME280_temperature;BME280_humidity;BME280_pressure;Samples;Min_cycle;Max_cycle;Signal;HPM_P1;HPM_P2
2022/08/18 00:00:44;;;;;;;4.93;2.13;;;21.80;99.90;;;;;;5162865;28;20214;-61
2022/08/18 00:03:16;;;;;;;5.90;1.67;;;21.80;99.90;;;;;;5209097;28;20047;-61
2022/08/18 00:05:49;;;;;;;2.15;1.70;;;21.70;99.90;;;;;;5209300;28;20047;-62
2022/08/18 00:08:22;;;;;;;2.63;2.03;;;21.60;99.90;;;;;;5215246;28;20215;-61
2022/08/18 00:10:57;;;;;;;3.13;2.05;;;21.40;99.90;;;;;;5196884;28;20025;-61
2022/08/18 00:13:28;;;;;;;;;;;21.40;99.90;;;;;;5198065;28;20051;-61
2022/08/18 00:16:00;;;;;;;2.00;1.80;;;21.40;99.90;;;;;;5215362;28;19908;-62
2022/08/18 00:18:34;;;;;;;2.47;2.10;;;21.40;99.90;;;;;;5216280;28;20029;-62
2022/08/18 00:21:09;;;;;;;2.28;1.80;;;21.40;99.90;;;;;;5180334;28;20255;-61
2022/08/18 00:23:40;;;;;;;2.08;1.60;;;21.50;99.90;;;;;;5220055;28;20026;-61
2022/08/18 00:26:14;;;;;;;2.83;1.98;;;21.50;99.90;;;;;;5209327;28;20043;-61
2022/08/18 00:28:45;;;;;;;3.88;2.03;;;21.60;99.90;;;;;;5221334;28;20541;-61
2022/08/18 00:31:20;;;;;;;2.97;2.33;;;21.60;99.90;;;;;;5194819;28;20261;-61
2022/08/18 00:33:53;;;;;;;;;;;21.70;99.90;;;;;;5219276;28;20039;-60
2022/08/18 00:36:27;;;;;;;4.65;2.47;;;21.70;99.90;;;;;;5217869;28;20146;-62
2022/08/18 00:39:05;;;;;;;2.72;2.28;;;21.70;99.90;;;;;;5201344;28;20044;-61
2022/08/18 00:41:37;;;;;;;2.45;2.17;;;21.60;99.90;;;;;;5218407;28;20029;-61
2022/08/18 00:44:15;;;;;;;2.92;1.75;;;21.60;99.90;;;;;;5197426;28;20033;-62
2022/08/18 00:46:48;;;;;;;2.58;2.15;;;21.60;99.90;;;;;;5211240;28;20050;-61
2022/08/18 00:49:19;;;;;;;5.47;2.35;;;21.60;99.90;;;;;;5184598;28;20033;-61
2022/08/18 00:51:55;;;;;;;3.25;2.25;;;21.60;99.90;;;;;;5218407;28;20036;-62
2022/08/18 00:54:35;;;;;;;5.03;2.17;;;21.60;99.90;;;;;;5219177;28;20048;-61
2022/08/18 00:57:08;;;;;;;2.85;1.73;;;21.60;99.90;;;;;;5220579;28;20340;-62
2022/08/18 00:59:43;;;;;;;3.40;2.25;;;21.50;99.90;;;;;;5228292;28;20019;-62
2022/08/18 01:02:28;;;;;;;2.78;2.08;;;21.50;99.90;;;;;;5225893;28;20314;-62
2022/08/18 01:05:29;;;;;;;2.72;2.30;;;21.40;99.90;;;;;;5214381;28;20044;-61
2022/08/18 01:08:00;;;;;;;2.30;2.10;;;21.40;99.90;;;;;;5197482;28;20029;-61
2022/08/18 01:10:32;;;;;;;5.63;2.22;;;21.40;99.90;;;;;;5189960;28;20025;-61
2022/08/18 01:13:07;;;;;;;2.35;1.85;;;21.30;99.90;;;;;;5219250;28;20294;-62
2022/08/18 01:15:39;;;;;;;4.97;2.75;;;21.20;99.90;;;;;;5201238;28;20043;-61
2022/08/18 01:24:03;;;;;;;2.90;2.08;;;21.00;99.90;;;;;;5202959;28;20464;-62
2022/08/18 01:26:48;;;;;;;2.78;2.22;;;20.90;99.90;;;;;;5213731;28;20349;-62
2022/08/18 01:29:23;;;;;;;2.60;1.95;;;20.90;99.90;;;;;;5229271;28;20071;-62
2022/08/18 01:31:54;;;;;;;2.72;1.90;;;20.90;99.90;;;;;;5238113;28;20340;-62
2022/08/18 01:34:27;;;;;;;3.30;2.03;;;20.80;99.90;;;;;;5202403;28;20025;-62
2022/08/18 01:36:58;;;;;;;3.88;2.35;;;20.90;99.90;;;;;;5217958;28;20368;-64
2022/08/18 01:39:32;;;;;;;3.00;2.35;;;20.80;99.90;;;;;;5218477;28;20042;-61
2022/08/18 01:42:04;;;;;;;3.85;2.65;;;20.80;99.90;;;;;;5221173;28;20310;-62
2022/08/18 01:44:40;;;;;;;3.90;2.38;;;20.70;99.90;;;;;;5220920;28;20032;-62
2022/08/18 01:47:12;;;;;;;4.35;2.47;;;20.70;99.90;;;;;;5186138;28;20041;-62
2022/08/18 01:49:43;;;;;;;6.97;2.20;;;20.60;99.90;;;;;;5221204;28;20179;-61
2022/08/18 01:52:24;;;;;;;5.35;2.70;;;20.60;99.90;;;;;;5196108;28;20047;-62
2022/08/18 01:55:00;;;;;;;2.88;2.15;;;20.60;99.90;;;;;;5207311;28;20196;-62
2022/08/18 01:57:31;;;;;;;3.55;2.30;;;20.70;99.90;;;;;;5231165;28;20031;-62
2022/08/18 02:00:03;;;;;;;3.28;2.60;;;20.60;99.90;;;;;;5202558;28;20024;-62
2022/08/18 02:02:35;;;;;;;3.25;2.78;;;20.70;99.90;;;;;;5217540;28;20493;-62
2022/08/18 02:05:19;;;;;;;3.40;2.08;;;20.60;99.90;;;;;;5206979;28;20037;-62
2022/08/18 02:07:51;;;;;;;3.28;2.35;;;20.60;99.90;;;;;;5217087;28;20033;-61
2022/08/18 02:10:26;;;;;;;4.10;2.35;;;20.60;99.90;;;;;;5198396;28;20510;-61
2022/08/18 02:12:57;;;;;;;2.55;2.33;;;20.60;99.90;;;;;;5216266;28;20214;-61
2022/08/18 02:15:28;;;;;;;3.00;2.58;;;20.60;99.90;;;;;;5217285;28;20032;-61
2022/08/18 02:18:00;;;;;;;4.68;2.40;;;20.60;99.90;;;;;;5203056;28;20035;-61
2022/08/18 02:20:31;;;;;;;2.45;2.25;;;20.60;99.90;;;;;;5216582;28;20028;-61
2022/08/18 02:23:05;;;;;;;3.03;2.70;;;20.60;99.90;;;;;;5198584;28;20032;-61
2022/08/18 02:25:41;;;;;;;3.97;2.53;;;20.50;99.90;;;;;;5216034;28;20033;-62
2022/08/18 02:28:16;;;;;;;3.95;2.45;;;20.50;99.90;;;;;;5229267;28;20028;-62
2022/08/18 02:30:47;;;;;;;;;;;20.50;99.90;;;;;;5219964;28;20225;-62
2022/08/18 02:33:20;;;;;;;3.60;2.40;;;20.50;99.90;;;;;;5235945;28;19906;-62
2022/08/18 02:35:54;;;;;;;3.67;2.78;;;20.40;99.90;;;;;;5217523;28;20021;-62
2022/08/18 02:38:25;;;;;;;4.50;2.53;;;20.40;99.90;;;;;;5198920;28;20028;-61
2022/08/18 02:41:02;;;;;;;3.80;2.75;;;20.40;99.90;;;;;;5199257;28;20340;-62
2022/08/18 02:43:38;;;;;;;4.47;2.63;;;20.40;99.90;;;;;;5216118;28;20112;-62
2022/08/18 02:46:09;;;;;;;3.42;2.85;;;20.30;99.90;;;;;;5182130;28;20036;-61
2022/08/18 02:48:46;;;;;;;4.30;2.58;;;20.30;99.90;;;;;;5199783;28;20198;-62
2022/08/18 02:51:17;;;;;;;3.58;2.72;;;20.30;99.90;;;;;;5198789;28;20039;-62
2022/08/18 02:53:50;;;;;;;3.20;2.28;;;20.30;99.90;;;;;;5216964;28;20036;-62
2022/08/18 02:56:26;;;;;;;5.65;3.08;;;20.20;99.90;;;;;;5186727;28;20204;-62
2022/08/18 02:59:04;;;;;;;3.33;2.90;;;20.10;99.90;;;;;;5215744;28;20029;-62
2022/08/18 03:01:41;;;;;;;3.25;2.53;;;20.10;99.90;;;;;;5216995;28;20023;-62
2022/08/18 03:04:26;;;;;;;3.38;2.55;;;20.10;99.90;;;;;;5215769;28;20724;-61
2022/08/18 03:07:03;;;;;;;3.90;2.58;;;20.00;99.90;;;;;;5188486;28;20040;-61
2022/08/18 03:09:38;;;;;;;5.80;2.65;;;19.90;99.90;;;;;;5216049;28;20036;-62
2022/08/18 03:12:12;;;;;;;4.10;2.90;;;19.90;99.90;;;;;;5235825;28;20020;-61
2022/08/18 03:14:46;;;;;;;3.97;3.10;;;19.80;99.90;;;;;;5215493;28;20028;-61
2022/08/18 03:17:17;;;;;;;;;;;19.80;99.90;;;;;;5182131;28;20253;-61
2022/08/18 03:19:51;;;;;;;3.65;2.70;;;19.80;99.90;;;;;;5215714;28;19909;-61
2022/08/18 03:22:27;;;;;;;3.53;2.63;;;19.80;99.90;;;;;;5219792;28;20415;-61
2022/08/18 03:25:06;;;;;;;3.30;2.63;;;19.80;99.90;;;;;;5199171;28;20303;-61
2022/08/18 03:27:40;;;;;;;7.57;2.85;;;19.90;99.90;;;;;;5219128;28;20310;-61
2022/08/18 03:30:14;;;;;;;4.90;2.53;;;19.90;99.90;;;;;;5218451;28;20225;-61
2022/08/18 03:32:48;;;;;;;5.75;3.10;;;19.80;99.90;;;;;;5194661;28;20036;-61
2022/08/18 03:35:21;;;;;;;5.07;2.35;;;19.80;99.90;;;;;;5197483;28;20214;-62
2022/08/18 03:37:55;;;;;;;3.22;2.67;;;19.80;99.90;;;;;;5215576;28;20032;-62
2022/08/18 03:40:26;;;;;;;3.63;2.42;;;19.70;99.90;;;;;;5218461;28;20043;-61
2022/08/18 03:43:07;;;;;;;4.45;2.90;;;19.80;99.90;;;;;;5225321;28;20210;-62
2022/08/18 03:45:40;;;;;;;7.50;2.63;;;19.90;99.90;;;;;;5197784;28;20035;-61
2022/08/18 03:48:21;;;;;;;2.88;2.58;;;20.00;99.90;;;;;;5199889;28;20326;-61
2022/08/18 03:51:03;;;;;;;8.35;2.58;;;20.10;99.90;;;;;;5207325;28;20020;-62
2022/08/18 03:53:36;;;;;;;4.00;2.88;;;20.10;99.90;;;;;;5185692;28;20115;-61
2022/08/18 03:56:16;;;;;;;5.33;2.80;;;20.10;99.90;;;;;;5232718;28;20282;-62
2022/08/18 03:58:51;;;;;;;3.30;2.55;;;20.20;99.90;;;;;;5236888;28;20020;-62
2022/08/18 04:01:25;;;;;;;7.72;3.15;;;20.10;99.90;;;;;;5236094;28;20023;-62
2022/08/18 04:04:01;;;;;;;;;;;20.20;99.90;;;;;;5222300;28;20016;-62
2022/08/18 04:06:37;;;;;;;2.90;2.33;;;20.20;99.90;;;;;;5183361;28;19916;-62
2022/08/18 04:09:17;;;;;;;3.90;2.60;;;20.20;99.90;;;;;;5194544;28;20226;-61
2022/08/18 04:11:54;;;;;;;5.32;2.95;;;20.30;99.90;;;;;;5183069;28;20241;-61
2022/08/18 04:14:31;;;;;;;5.55;3.10;;;20.30;99.90;;;;;;5222143;28;20020;-61
2022/08/18 04:17:11;;;;;;;6.07;3.40;;;20.40;99.90;;;;;;5220334;28;20025;-61
2022/08/18 04:19:42;;;;;;;5.57;2.92;;;20.40;99.90;;;;;;5221794;28;20013;-61
2022/08/18 04:22:16;;;;;;;3.50;2.58;;;20.40;99.90;;;;;;5194531;28;20243;-63
2022/08/18 04:24:50;;;;;;;3.95;2.85;;;20.50;99.90;;;;;;5202794;28;20031;-62
2022/08/18 04:27:21;;;;;;;6.47;3.90;;;20.60;99.90;;;;;;5218852;28;20029;-61
2022/08/18 04:29:55;;;;;;;4.65;2.83;;;20.70;99.90;;;;;;5219462;28;20742;-62
2022/08/18 04:32:32;;;;;;;3.90;2.83;;;20.80;99.90;;;;;;5219881;28;20487;-61
2022/08/18 04:35:06;;;;;;;5.13;2.92;;;21.00;99.90;;;;;;5219897;28;20029;-62
2022/08/18 04:37:44;;;;;;;;;;;21.10;99.90;;;;;;5184504;28;20553;-62
2022/08/18 04:40:15;;;;;;;4.40;2.70;;;21.20;99.90;;;;;;5200644;28;19901;-62
2022/08/18 04:42:52;;;;;;;4.20;3.08;;;21.30;99.90;;;;;;5218238;28;20039;-62
2022/08/18 04:45:24;;;;;;;4.13;2.63;;;21.50;99.90;;;;;;5219681;28;20400;-61
2022/08/18 04:47:57;;;;;;;4.40;3.05;;;21.60;99.90;;;;;;5218966;28;20031;-61
2022/08/18 04:50:29;;;;;;;3.95;2.88;;;21.70;99.90;;;;;;5230223;28;20258;-63
2022/08/18 04:56:00;;;;;;;6.00;2.95;;;21.90;99.90;;;;;;5218596;28;20042;-61
2022/08/18 04:58:38;;;;;;;3.95;3.20;;;22.10;99.90;;;;;;5217071;28;20032;-62
2022/08/18 05:01:10;;;;;;;3.83;2.75;;;22.20;99.90;;;;;;5217071;28;20352;-62
2022/08/18 05:03:41;;;;;;;4.43;3.03;;;22.20;99.90;;;;;;5184460;28;20036;-62
2022/08/18 05:06:12;;;;;;;4.18;3.00;;;22.30;99.90;;;;;;5207620;28;20063;-62
2022/08/18 05:08:47;;;;;;;5.68;2.88;;;22.30;99.90;;;;;;5218094;28;20242;-62
2022/08/18 05:11:24;;;;;;;7.90;3.30;;;22.50;99.90;;;;;;5218459;28;20316;-62
2022/08/18 05:14:04;;;;;;;4.43;3.10;;;22.60;99.90;;;;;;5216527;28;20043;-62
2022/08/18 05:16:39;;;;;;;4.10;3.08;;;22.80;99.90;;;;;;5204179;28;20104;-62
2022/08/18 05:19:11;;;;;;;6.63;3.22;;;23.10;99.90;;;;;;5213890;28;20253;-62
2022/08/18 05:21:47;;;;;;;4.85;3.58;;;23.40;99.90;;;;;;5189292;28;20021;-63
2022/08/18 05:24:22;;;;;;;4.90;2.97;;;23.60;99.90;;;;;;5219538;28;20070;-62
2022/08/18 05:26:56;;;;;;;4.70;3.28;;;23.70;99.90;;;;;;5214575;28;20333;-62
2022/08/18 05:29:38;;;;;;;;;;;23.70;99.90;;;;;;5200692;28;20064;-62
2022/08/18 05:32:09;;;;;;;4.70;2.95;;;23.90;99.90;;;;;;5200069;28;19901;-62
2022/08/18 05:34:40;;;;;;;4.45;3.08;;;24.20;99.90;;;;;;5199657;28;20036;-62
2022/08/18 05:37:19;;;;;;;4.18;3.10;;;24.30;99.90;;;;;;5183125;28;20032;-63
2022/08/18 05:40:00;;;;;;;5.20;3.10;;;24.70;99.90;;;;;;5202383;28;20230;-62
2022/08/18 05:42:38;;;;;;;3.70;2.90;;;24.70;99.90;;;;;;5200127;28;20334;-62
2022/08/18 05:45:15;;;;;;;3.45;2.80;;;25.00;99.90;;;;;;5218039;28;20036;-63
2022/08/18 05:47:48;;;;;;;4.15;3.25;;;25.30;99.90;;;;;;5201887;28;20262;-62
2022/08/18 05:50:19;;;;;;;4.30;3.35;;;25.40;99.90;;;;;;5223929;28;20226;-62
2022/08/18 05:53:07;;;;;;;4.55;3.30;;;25.60;99.90;;;;;;5239629;28;20020;-61
2022/08/18 05:58:51;;;;;;;4.47;2.85;;;25.60;99.90;;;;;;5235183;28;20047;-63
2022/08/18 06:01:40;;;;;;;4.40;2.85;;;25.90;99.90;;;;;;5235250;28;20031;-63
2022/08/18 06:04:43;;;;;;;4.03;3.63;;;26.30;99.90;;;;;;5218284;28;20150;-63
2022/08/18 06:07:26;;;;;;;3.58;2.92;;;26.60;99.90;;;;;;5183012;28;20040;-64
2022/08/18 06:10:02;;;;;;;5.25;3.33;;;27.00;99.90;;;;;;5216605;28;20024;-62
2022/08/18 06:12:42;;;;;;;5.88;3.13;;;27.50;99.90;;;;;;5215319;28;20031;-64
2022/08/18 06:15:15;;;;;;;5.22;2.90;;;28.00;99.90;;;;;;5220185;28;20032;-62
2022/08/18 06:18:15;;;;;;;3.45;2.85;;;28.40;99.90;;;;;;5227012;28;20298;-62
2022/08/18 06:21:05;;;;;;;4.20;2.88;;;28.30;99.90;;;;;;5237896;28;20020;-64
2022/08/18 06:24:00;;;;;;;6.40;2.90;;;28.90;99.90;;;;;;5221168;28;20031;-63
2022/08/18 06:26:53;;;;;;;3.63;2.63;;;29.40;99.90;;;;;;5238041;28;20048;-64
2022/08/18 06:29:33;;;;;;;5.50;3.33;;;29.80;99.90;;;;;;5225267;28;20303;-63
2022/08/18 06:32:40;;;;;;;2.78;2.53;;;29.60;99.90;;;;;;5217986;28;20084;-62
2022/08/18 06:35:33;;;;;;;3.50;2.13;;;29.10;99.90;;;;;;5200756;28;20028;-62
2022/08/18 06:41:08;;;;;;;2.80;2.50;;;28.50;99.90;;;;;;5216667;28;20043;-62
2022/08/18 06:44:02;;;;;;;3.00;2.45;;;28.20;99.90;;;;;;5213132;28;20247;-62
2022/08/18 06:46:43;;;;;;;3.95;2.42;;;28.30;99.90;;;;;;5211072;28;20029;-62
2022/08/18 06:49:53;;;;;;;4.55;2.25;;;28.70;99.90;;;;;;5199989;28;20314;-64
2022/08/18 06:52:36;;;;;;;3.13;2.38;;;29.10;99.90;;;;;;5154143;28;20230;-62
2022/08/18 06:55:16;;;;;;;2.63;2.42;;;29.60;99.90;;;;;;5136454;28;20212;-62
2022/08/18 06:57:59;;;;;;;2.47;2.22;;;29.30;99.90;;;;;;5152666;28;20060;-62
2022/08/18 07:00:34;;;;;;;2.97;2.43;;;29.50;99.90;;;;;;5137063;28;20030;-62
2022/08/18 07:03:06;;;;;;;5.13;2.90;;;29.70;99.90;;;;;;5152847;28;20036;-62
2022/08/18 07:06:26;;;;;;;2.33;1.95;;;30.00;99.90;;;;;;5143894;28;20049;-63
2022/08/18 07:09:22;;;;;;;2.60;2.28;;;30.30;99.90;;;;;;5091192;29;20097;-63
2022/08/18 07:12:22;;;;;;;3.33;2.78;;;31.00;99.90;;;;;;5093320;29;20036;-63
2022/08/18 07:15:01;;;;;;;4.20;2.80;;;29.40;99.90;;;;;;5097903;29;20065;-63
2022/08/18 07:17:39;;;;;;;3.55;2.20;;;28.70;99.90;;;;;;5073333;28;20036;-63
2022/08/18 07:20:20;;;;;;;3.47;2.70;;;28.40;99.90;;;;;;5074409;29;20032;-62
2022/08/18 07:23:02;;;;;;;3.33;3.03;;;28.60;99.90;;;;;;5075502;29;20223;-63
2022/08/18 07:25:44;;;;;;;3.40;2.53;;;29.20;99.90;;;;;;5108280;29;20037;-63
2022/08/18 07:28:31;;;;;;;2.97;2.50;;;29.60;99.90;;;;;;5108236;28;20031;-63
2022/08/18 07:31:26;;;;;;;4.15;2.70;;;29.90;99.90;;;;;;5109494;28;20312;-62
2022/08/18 07:34:11;;;;;;;3.35;2.53;;;29.30;99.90;;;;;;5173053;28;20940;-62
2022/08/18 07:36:48;;;;;;;;;;;28.80;99.90;;;;;;5134459;28;20568;-61
2022/08/18 07:39:29;;;;;;;4.13;2.15;;;28.50;99.90;;;;;;5150405;28;19908;-63
2022/08/18 07:42:23;;;;;;;2.60;2.22;;;28.30;99.90;;;;;;5149396;28;20043;-61
2022/08/18 07:45:08;;;;;;;2.90;2.13;;;28.10;99.90;;;;;;5170300;28;20029;-62
2022/08/18 07:47:47;;;;;;;;;;;28.10;99.90;;;;;;5234053;28;20033;-63
2022/08/18 07:50:19;;;;;;;3.38;2.47;;;28.00;99.90;;;;;;5236742;28;19927;-62
2022/08/18 07:53:07;;;;;;;2.45;2.00;;;27.80;99.90;;;;;;5202554;28;20297;-62
2022/08/18 07:55:44;;;;;;;4.22;2.40;;;28.20;99.90;;;;;;5227306;28;20017;-61
2022/08/18 07:58:30;;;;;;;3.15;2.42;;;28.30;99.90;;;;;;5215784;28;20043;-61
2022/08/18 08:01:19;;;;;;;2.92;2.50;;;28.10;99.90;;;;;;5215964;28;20021;-61
2022/08/18 08:04:06;;;;;;;2.53;2.10;;;28.20;99.90;;;;;;5210398;28;20021;-62
2022/08/18 08:06:41;;;;;;;4.32;3.15;;;28.30;99.90;;;;;;5190867;28;20056;-61
2022/08/18 08:09:53;;;;;;;4.32;2.50;;;28.40;99.90;;;;;;5220424;28;20040;-62
2022/08/18 08:12:53;;;;;;;3.78;2.42;;;29.10;99.90;;;;;;5198061;28;20033;-63
2022/08/18 08:15:56;;;;;;;4.80;2.63;;;29.10;99.90;;;;;;5192062;28;20033;-63
2022/08/18 08:18:58;;;;;;;8.93;2.75;;;28.90;99.90;;;;;;5172405;28;20037;-63
2022/08/18 08:21:35;;;;;;;2.53;2.30;;;28.90;99.90;;;;;;5167270;28;20036;-61
2022/08/18 08:24:23;;;;;;;3.55;2.40;;;29.30;99.90;;;;;;5191478;28;20043;-61
2022/08/18 08:27:23;;;;;;;3.42;2.20;;;30.70;99.90;;;;;;5192156;28;20226;-62
2022/08/18 08:30:01;;;;;;;2.58;2.33;;;31.50;99.90;;;;;;5190410;28;20237;-63
2022/08/18 08:32:36;;;;;;;2.72;2.10;;;31.00;99.90;;;;;;5192323;28;20025;-63
2022/08/18 08:35:16;;;;;;;3.10;2.30;;;31.70;99.90;;;;;;5201592;28;20021;-62
2022/08/18 08:38:10;;;;;;;2.75;2.50;;;31.60;99.90;;;;;;5213532;28;20171;-63
2022/08/18 08:41:04;;;;;;;2.88;2.60;;;31.80;99.90;;;;;;5195024;28;20508;-63
2022/08/18 08:43:43;;;;;;;2.67;2.47;;;31.70;99.90;;;;;;5176381;28;20093;-62
2022/08/18 08:46:21;;;;;;;2.72;2.53;;;32.40;99.90;;;;;;5203295;28;20265;-63
2022/08/18 08:49:00;;;;;;;2.65;2.42;;;33.20;99.90;;;;;;5197463;28;20033;-62
2022/08/18 08:51:47;;;;;;;5.13;2.60;;;33.40;99.90;;;;;;5196977;28;20055;-63
2022/08/18 08:54:36;;;;;;;2.20;2.00;;;33.60;99.90;;;;;;5215683;28;20035;-62
2022/08/18 08:57:13;;;;;;;3.20;2.75;;;33.60;99.90;;;;;;5217736;28;20295;-63
2022/08/18 08:59:48;;;;;;;2.83;2.20;;;33.70;99.90;;;;;;5218486;28;20046;-62
2022/08/18 09:02:44;;;;;;;2.58;2.33;;;33.80;99.90;;;;;;5219251;28;20027;-62
2022/08/18 09:05:27;;;;;;;3.15;2.22;;;34.20;99.90;;;;;;5208395;28;20041;-63
2022/08/18 09:08:01;;;;;;;3.13;2.53;;;34.60;99.90;;;;;;5222637;28;20029;-62
2022/08/18 09:10:41;;;;;;;3.80;2.80;;;35.30;99.90;;;;;;5221455;28;20532;-62
2022/08/18 09:13:40;;;;;;;4.15;2.58;;;34.50;99.90;;;;;;5229479;28;20040;-63
2022/08/18 09:16:40;;;;;;;5.70;2.67;;;34.80;99.90;;;;;;5212781;28;20159;-62
2022/08/18 09:19:28;;;;;;;3.92;2.65;;;35.40;99.90;;;;;;5200606;28;20039;-63
2022/08/18 09:22:41;;;;;;;2.67;2.45;;;35.70;99.90;;;;;;5216923;28;20039;-63
2022/08/18 09:25:37;;;;;;;3.17;2.67;;;35.40;99.90;;;;;;5219477;28;20210;-63
2022/08/18 09:29:02;;;;;;;2.75;2.40;;;36.10;99.90;;;;;;5235015;28;20024;-63
2022/08/18 09:31:39;;;;;;;;;;;36.30;99.90;;;;;;5212046;28;20326;-63
2022/08/18 09:34:45;;;;;;;3.47;2.72;;;36.80;99.90;;;;;;5207661;28;19907;-62
2022/08/18 09:41:30;;;;;;;3.00;2.53;;;37.10;99.90;;;;;;5219160;28;20071;-64
2022/08/18 09:44:09;;;;;;;2.85;2.25;;;37.20;99.90;;;;;;5224094;28;20270;-64
2022/08/18 09:46:46;;;;;;;2.53;2.33;;;37.90;99.90;;;;;;5228879;28;20029;-62
2022/08/18 09:49:29;;;;;;;4.18;2.75;;;37.90;99.90;;;;;;5218553;28;20031;-64
2022/08/18 09:52:20;;;;;;;4.18;2.45;;;37.90;99.90;;;;;;5218756;28;20197;-64
2022/08/18 09:55:05;;;;;;;2.40;2.20;;;37.00;99.90;;;;;;5220821;28;20023;-62
2022/08/18 09:57:40;;;;;;;3.08;2.75;;;37.40;99.90;;;;;;5201645;28;20296;-64
2022/08/18 10:00:25;;;;;;;2.85;2.60;;;37.40;99.90;;;;;;5218098;28;20029;-63
2022/08/18 10:03:00;;;;;;;4.28;3.00;;;37.50;99.90;;;;;;5229476;28;20025;-62
2022/08/18 10:05:33;;;;;;;3.38;2.58;;;37.30;99.90;;;;;;5212802;28;20032;-63
2022/08/18 10:08:07;;;;;;;6.60;3.00;;;37.30;99.90;;;;;;5219318;28;20024;-63
2022/08/18 10:11:16;;;;;;;4.43;3.30;;;36.40;99.90;;;;;;5238739;28;20048;-64
2022/08/18 10:14:15;;;;;;;3.90;2.92;;;35.70;99.90;;;;;;5220887;28;20041;-63
2022/08/18 10:17:03;;;;;;;4.75;3.00;;;35.90;99.90;;;;;;5228633;28;20047;-62
2022/08/18 10:20:01;;;;;;;3.70;2.40;;;35.90;99.90;;;;;;5240007;28;20382;-63
2022/08/18 10:22:44;;;;;;;4.25;2.70;;;36.00;99.90;;;;;;5244147;28;20021;-64
2022/08/18 10:25:37;;;;;;;4.37;3.13;;;36.90;99.90;;;;;;5247827;28;20106;-65
2022/08/18 10:28:33;;;;;;;5.30;2.70;;;37.80;99.90;;;;;;5222487;28;20023;-64
2022/08/18 10:31:07;;;;;;;4.15;2.97;;;39.10;99.90;;;;;;5205311;28;20035;-63
2022/08/18 10:34:12;;;;;;;3.25;2.70;;;39.40;99.90;;;;;;5187254;28;20352;-63
2022/08/18 10:37:07;;;;;;;6.13;3.60;;;39.40;99.90;;;;;;5198907;28;20461;-62
2022/08/18 10:39:38;;;;;;;4.35;3.08;;;39.80;99.90;;;;;;5196939;28;20033;-62
2022/08/18 10:42:09;;;;;;;2.88;2.60;;;40.30;99.90;;;;;;5197869;28;20032;-64
2022/08/18 10:44:46;;;;;;;3.03;2.63;;;40.10;99.90;;;;;;5218550;28;20043;-62
2022/08/18 10:47:29;;;;;;;2.97;2.40;;;40.50;99.90;;;;;;5184366;28;20314;-62
2022/08/18 10:50:19;;;;;;;4.20;3.13;;;40.80;99.90;;;;;;5204291;28;20311;-63
2022/08/18 10:52:53;;;;;;;6.13;2.53;;;41.20;99.80;;;;;;5238844;28;20411;-63
2022/08/18 10:55:49;;;;;;;3.10;2.85;;;40.60;99.70;;;;;;5220856;28;20091;-62
2022/08/18 10:59:00;;;;;;;6.25;2.65;;;41.20;99.80;;;;;;5220231;28;20032;-63
2022/08/18 11:01:54;;;;;;;3.58;2.58;;;42.00;98.50;;;;;;5233263;28;20013;-62
2022/08/18 11:04:55;;;;;;;6.35;2.97;;;42.60;98.10;;;;;;5203747;28;20047;-63
2022/08/18 11:07:37;;;;;;;5.82;2.30;;;42.90;97.40;;;;;;5193411;28;20188;-63
2022/08/18 11:10:47;;;;;;;5.90;2.92;;;42.80;97.40;;;;;;5217574;28;20047;-65
2022/08/18 11:13:50;;;;;;;5.80;2.60;;;43.50;96.50;;;;;;5218186;28;20460;-62
2022/08/18 11:16:43;;;;;;;11.35;2.90;;;43.10;96.70;;;;;;5214502;28;20257;-63
2022/08/18 11:19:21;;;;;;;3.72;2.72;;;43.80;95.90;;;;;;5204585;28;20302;-63
2022/08/18 11:21:55;;;;;;;5.50;2.42;;;42.70;94.80;;;;;;5199355;28;20024;-63
2022/08/18 11:24:31;;;;;;;3.75;2.67;;;43.10;94.80;;;;;;5203008;28;20020;-61
2022/08/18 11:27:16;;;;;;;3.00;2.42;;;44.00;94.80;;;;;;5217510;28;20021;-65
2022/08/18 11:29:48;;;;;;;4.45;2.35;;;44.30;93.60;;;;;;5217754;28;20043;-63
2022/08/18 11:32:21;;;;;;;9.60;2.70;;;42.90;94.20;;;;;;5220996;28;20234;-62
2022/08/18 11:35:14;;;;;;;2.83;2.50;;;44.10;94.30;;;;;;5207629;28;20213;-63
2022/08/18 11:37:46;;;;;;;2.28;2.03;;;44.70;93.20;;;;;;5216576;28;20025;-63
2022/08/18 11:40:36;;;;;;;3.53;2.08;;;45.00;92.70;;;;;;5238617;28;20514;-62
2022/08/18 11:43:15;;;;;;;2.78;2.28;;;44.90;92.70;;;;;;5229009;28;20033;-63
2022/08/18 11:45:54;;;;;;;2.60;2.20;;;45.30;92.30;;;;;;5198952;28;20047;-63
2022/08/18 11:48:37;;;;;;;4.53;2.58;;;45.80;91.60;;;;;;5217801;28;20037;-63
2022/08/18 11:51:19;;;;;;;2.70;2.20;;;46.30;91.30;;;;;;5208021;28;20517;-63
2022/08/18 11:54:18;;;;;;;2.40;2.17;;;46.40;89.70;;;;;;5236922;28;20032;-62
2022/08/18 11:56:51;;;;;;;2.88;2.05;;;45.20;88.70;;;;;;5234392;28;20198;-63
2022/08/18 11:59:25;;;;;;;2.67;2.30;;;43.60;90.30;;;;;;5219542;28;20267;-63
2022/08/18 12:01:58;;;;;;;3.55;1.88;;;45.10;90.00;;;;;;5221731;28;20021;-65
2022/08/18 12:04:38;;;;;;;2.75;1.88;;;44.70;88.50;;;;;;5177547;28;20296;-63
2022/08/18 12:07:16;;;;;;;2.10;1.90;;;43.60;85.80;;;;;;5210906;28;20025;-62
2022/08/18 12:10:13;;;;;;;2.50;2.13;;;43.50;86.80;;;;;;5239256;28;20448;-62
2022/08/18 12:12:56;;;;;;;1.88;1.63;;;44.20;87.00;;;;;;5231829;28;20027;-62
2022/08/18 12:15:37;;;;;;;2.30;2.10;;;45.10;85.90;;;;;;5185702;28;20482;-63
2022/08/18 12:18:11;;;;;;;3.47;2.20;;;46.50;85.00;;;;;;5217468;28;20035;-63
2022/08/18 12:20:47;;;;;;;7.95;2.72;;;45.40;85.60;;;;;;5217688;28;20036;-64
2022/08/18 12:23:18;;;;;;;2.30;2.10;;;46.00;84.90;;;;;;5233280;28;20026;-63
2022/08/18 12:25:50;;;;;;;2.40;2.03;;;46.50;85.00;;;;;;5237902;28;20448;-65
2022/08/18 12:28:26;;;;;;;2.30;2.05;;;45.70;84.40;;;;;;5220019;28;20045;-62
2022/08/18 12:30:57;;;;;;;2.05;1.95;;;44.20;86.10;;;;;;5223506;28;20017;-63
2022/08/18 12:33:28;;;;;;;2.65;2.40;;;44.10;86.20;;;;;;5230292;28;20262;-62
2022/08/18 12:36:01;;;;;;;5.03;2.08;;;43.80;86.10;;;;;;5221491;28;20051;-63
2022/08/18 12:38:32;;;;;;;2.10;1.87;;;44.50;86.10;;;;;;5219648;28;20191;-64
2022/08/18 12:41:10;;;;;;;3.72;2.20;;;44.70;84.90;;;;;;5220559;28;20645;-63
2022/08/18 12:43:41;;;;;;;3.33;2.30;;;44.60;84.50;;;;;;5220312;28;20040;-62
2022/08/18 12:46:13;;;;;;;3.25;1.80;;;44.10;86.40;;;;;;5202744;28;20294;-64
2022/08/18 12:48:44;;;;;;;3.13;2.13;;;45.00;84.90;;;;;;5203027;28;20067;-64
2022/08/18 12:51:20;;;;;;;2.10;1.90;;;45.30;83.60;;;;;;5202639;28;20028;-63
2022/08/18 12:53:59;;;;;;;3.30;2.25;;;45.60;83.10;;;;;;5190883;28;20033;-62
2022/08/18 12:56:30;;;;;;;2.08;1.83;;;45.00;82.60;;;;;;5212304;28;20037;-64
2022/08/18 12:59:05;;;;;;;2.70;1.85;;;44.60;83.10;;;;;;5224427;28;20032;-64
2022/08/18 13:01:37;;;;;;;2.67;1.65;;;44.20;82.50;;;;;;5237592;28;20285;-63
2022/08/18 13:04:13;;;;;;;2.25;2.05;;;43.80;83.90;;;;;;5239882;28;20017;-62
2022/08/18 13:06:52;;;;;;;2.20;2.00;;;42.90;83.60;;;;;;5192117;28;20270;-64
2022/08/18 13:09:25;;;;;;;4.55;1.92;;;43.20;83.80;;;;;;5219256;28;20337;-64
2022/08/18 13:11:58;;;;;;;2.45;1.80;;;43.70;83.10;;;;;;5220248;28;20021;-61
2022/08/18 13:14:35;;;;;;;1.73;1.63;;;43.50;82.90;;;;;;5218583;28;20047;-64
2022/08/18 13:17:09;;;;;;;2.15;1.80;;;43.90;82.20;;;;;;5220216;28;20021;-63
2022/08/18 13:19:43;;;;;;;3.83;2.13;;;44.00;82.60;;;;;;5222252;28;20330;-62
2022/08/18 13:22:15;;;;;;;1.85;1.48;;;43.40;83.20;;;;;;5202786;28;20207;-62
2022/08/18 13:24:48;;;;;;;3.70;1.83;;;43.70;82.90;;;;;;5230352;28;20022;-63
2022/08/18 13:27:21;;;;;;;;;;;43.80;82.80;;;;;;5207830;28;20029;-63
2022/08/18 13:29:54;;;;;;;5.65;1.98;;;43.50;82.90;;;;;;5233146;28;20122;-64
2022/08/18 13:32:26;;;;;;;4.65;1.80;;;44.40;82.20;;;;;;5203235;28;20031;-64
2022/08/18 13:34:57;;;;;;;3.58;1.80;;;43.80;82.00;;;;;;5219626;28;20044;-63
2022/08/18 13:37:34;;;;;;;4.53;2.05;;;43.30;82.40;;;;;;5200772;28;20213;-62
2022/08/18 13:40:08;;;;;;;2.42;2.22;;;43.60;82.00;;;;;;5215582;28;20040;-62
2022/08/18 13:42:47;;;;;;;2.17;1.73;;;42.50;82.00;;;;;;5216900;28;20332;-62
2022/08/18 13:45:22;;;;;;;1.98;1.67;;;41.60;83.70;;;;;;5201960;28;20025;-62
2022/08/18 13:47:56;;;;;;;1.73;1.50;;;41.50;84.80;;;;;;5220056;28;20194;-64
2022/08/18 13:50:39;;;;;;;2.65;1.80;;;42.40;84.30;;;;;;5202566;28;20027;-63
2022/08/18 13:53:20;;;;;;;2.20;1.80;;;44.00;82.60;;;;;;5204965;28;20348;-64
2022/08/18 13:55:51;;;;;;;2.00;1.75;;;44.00;81.30;;;;;;5232805;28;20368;-63
2022/08/18 13:58:25;;;;;;;3.67;2.33;;;43.70;82.30;;;;;;5216006;28;20040;-64
2022/08/18 14:00:59;;;;;;;1.92;1.60;;;43.60;83.20;;;;;;5202504;28;20017;-64
2022/08/18 14:03:31;;;;;;;2.38;1.85;;;42.90;83.30;;;;;;5228215;28;20028;-63
2022/08/18 14:06:02;;;;;;;2.63;2.30;;;42.90;83.30;;;;;;5195113;28;20090;-65
2022/08/18 14:08:36;;;;;;;1.92;1.83;;;41.80;84.60;;;;;;5219314;28;20046;-62
2022/08/18 14:11:07;;;;;;;;;;;41.60;85.30;;;;;;5220848;28;20034;-64
2022/08/18 14:13:38;;;;;;;2.00;1.58;;;40.90;86.20;;;;;;5226450;28;19915;-64